createdAt,value
2023-05-20T00:02:26.673Z,3.63
2023-05-20T00:04:54.713Z,6.63
2023-05-20T00:07:22.752Z,3.88
2023-05-20T00:09:50.818Z,3.88
2023-05-20T00:12:18.923Z,3.30
2023-05-20T00:14:48.248Z,3.33
2023-05-20T00:17:16.154Z,6.07
2023-05-20T00:19:44.024Z,5.03
2023-05-20T00:22:11.996Z,3.55
2023-05-20T00:24:40.180Z,3.03
2023-05-20T00:27:08.083Z,3.85
2023-05-20T00:29:36.309Z,4.68
2023-05-20T00:32:06.176Z,3.45
2023-05-20T00:34:34.120Z,5.68
2023-05-20T00:37:02.011Z,2.67
2023-05-20T00:39:30.478Z,3.65
2023-05-20T00:42:00.680Z,3.83
2023-05-20T00:44:28.757Z,3.70
2023-05-20T00:46:57.284Z,5.13
2023-05-20T00:49:26.681Z,6.65
2023-05-20T00:51:54.644Z,4.00
2023-05-20T00:54:23.388Z,4.32
2023-05-20T00:56:51.674Z,4.13
2023-05-20T00:59:20.482Z,3.00
2023-05-20T01:01:48.849Z,5.28
2023-05-20T01:04:16.898Z,3.25
2023-05-20T01:06:48.104Z,3.45
2023-05-20T01:09:16.215Z,5.03
2023-05-20T01:11:49.981Z,5.38
2023-05-20T01:14:20.170Z,5.35
2023-05-20T01:16:51.353Z,5.30
2023-05-20T01:19:28.721Z,4.18
2023-05-20T01:22:00.504Z,4.85
2023-05-20T01:24:30.409Z,5.18
2023-05-20T01:26:58.553Z,4.45
2023-05-20T01:29:26.927Z,3.60
2023-05-20T01:31:56.425Z,4.75
2023-05-20T01:34:25.673Z,6.75
2023-05-20T01:36:55.794Z,5.10
2023-05-20T01:39:25.446Z,4.68
2023-05-20T01:41:56.987Z,3.97
2023-05-20T01:44:25.182Z,7.10
2023-05-20T01:46:53.410Z,4.20
2023-05-20T01:49:21.617Z,4.97
2023-05-20T01:51:49.640Z,4.88
2023-05-20T01:54:17.793Z,6.35
2023-05-20T01:56:47.324Z,5.10
2023-05-20T01:59:16.736Z,4.20
2023-05-20T02:01:44.795Z,5.00
2023-05-20T02:04:13.500Z,4.75
2023-05-20T02:06:41.724Z,5.78
2023-05-20T02:09:10.078Z,5.80
2023-05-20T02:11:38.457Z,5.40
2023-05-20T02:14:06.734Z,4.20
2023-05-20T02:16:36.389Z,4.70
2023-05-20T02:19:04.612Z,6.75
2023-05-20T02:21:32.919Z,5.78
2023-05-20T02:24:01.145Z,7.90
2023-05-20T02:26:29.224Z,5.63
2023-05-20T02:28:57.124Z,5.63
2023-05-20T02:31:25.340Z,4.63
2023-05-20T02:33:54.701Z,5.28
2023-05-20T02:36:22.910Z,4.50
2023-05-20T02:38:51.272Z,4.40
2023-05-20T02:41:19.614Z,5.38
2023-05-20T02:43:47.805Z,4.13
2023-05-20T02:46:18.785Z,3.90
2023-05-20T02:48:47.234Z,4.75
2023-05-20T02:51:16.971Z,5.63
2023-05-20T02:53:44.849Z,4.28
2023-05-20T02:56:13.284Z,5.60
2023-05-20T02:58:41.648Z,6.53
2023-05-20T03:01:09.622Z,6.90
2023-05-20T03:03:41.994Z,6.13
2023-05-20T03:06:10.059Z,4.80
2023-05-20T03:08:39.824Z,5.57
2023-05-20T03:11:07.772Z,3.70
2023-05-20T03:13:38.452Z,6.03
2023-05-20T03:16:14.830Z,5.50
2023-05-20T03:18:43.130Z,5.03
2023-05-20T03:21:14.485Z,5.25
2023-05-20T03:23:44.522Z,5.10
2023-05-20T03:26:12.918Z,5.95
2023-05-20T03:28:40.863Z,5.30
2023-05-20T03:31:08.836Z,7.63
2023-05-20T03:33:37.150Z,4.90
2023-05-20T03:36:05.632Z,4.57
2023-05-20T03:38:33.702Z,6.50
2023-05-20T03:41:03.018Z,6.93
2023-05-20T03:43:31.088Z,7.00
2023-05-20T03:45:59.117Z,6.45
2023-05-20T03:48:27.460Z,5.65
2023-05-20T03:50:55.642Z,4.70
2023-05-20T03:53:23.760Z,4.85
2023-05-20T03:55:52.230Z,4.70
2023-05-20T03:58:22.356Z,5.68
2023-05-20T04:00:50.419Z,6.13
2023-05-20T04:03:18.555Z,7.80
2023-05-20T04:05:46.719Z,4.10
2023-05-20T04:08:14.774Z,5.85
2023-05-20T04:10:43.691Z,5.32
2023-05-20T04:13:12.416Z,5.90
2023-05-20T04:15:42.014Z,4.72
2023-05-20T04:18:10.509Z,7.05
2023-05-20T04:20:38.570Z,5.55
2023-05-20T04:23:06.927Z,6.55
2023-05-20T04:25:36.552Z,5.32
2023-05-20T04:28:05.006Z,5.00
2023-05-20T04:30:33.458Z,5.63
2023-05-20T04:33:03.681Z,7.57
2023-05-20T04:35:32.071Z,5.18
2023-05-20T04:38:01.047Z,5.85
2023-05-20T04:40:28.953Z,3.45
2023-05-20T04:42:58.596Z,6.57
2023-05-20T04:45:27.034Z,7.88
2023-05-20T04:47:54.876Z,7.22
2023-05-20T04:50:24.255Z,5.07
2023-05-20T04:52:52.382Z,6.60
2023-05-20T04:55:21.755Z,6.10
2023-05-20T04:57:49.854Z,7.05
2023-05-20T05:00:21.562Z,8.57
2023-05-20T05:02:49.924Z,5.35
2023-05-20T05:05:18.197Z,5.82
2023-05-20T05:07:47.859Z,5.60
2023-05-20T05:10:16.079Z,4.88
2023-05-20T05:12:44.056Z,8.45
2023-05-20T05:15:12.525Z,4.72
2023-05-20T05:17:40.546Z,5.07
2023-05-20T05:20:10.318Z,5.53
2023-05-20T05:22:39.913Z,4.95
2023-05-20T05:25:10.610Z,6.53
2023-05-20T05:27:39.215Z,6.05
2023-05-20T05:30:08.803Z,5.75
2023-05-20T05:32:38.946Z,4.43
2023-05-20T05:35:08.466Z,5.45
2023-05-20T05:37:40.277Z,6.30
2023-05-20T05:40:10.857Z,5.40
2023-05-20T05:42:38.802Z,4.78
2023-05-20T05:45:07.725Z,6.45
2023-05-20T05:47:35.813Z,6.22
2023-05-20T05:50:03.980Z,7.43
2023-05-20T05:52:31.924Z,4.75
2023-05-20T05:55:00.074Z,5.65
2023-05-20T05:57:29.498Z,4.10
2023-05-20T05:59:57.375Z,7.60
2023-05-20T06:02:26.473Z,5.93
2023-05-20T06:04:54.928Z,5.10
2023-05-20T06:07:24.466Z,6.70
2023-05-20T06:09:52.344Z,7.53
2023-05-20T06:12:20.161Z,4.45
2023-05-20T06:14:50.020Z,5.47
2023-05-20T06:17:17.835Z,6.10
2023-05-20T06:19:45.801Z,5.78
2023-05-20T06:22:13.638Z,5.43
2023-05-20T06:24:41.523Z,5.03
2023-05-20T06:27:09.454Z,5.18
2023-05-20T06:29:37.400Z,6.60
2023-05-20T06:32:07.502Z,5.65
2023-05-20T06:34:35.685Z,11.45
2023-05-20T06:37:03.526Z,6.03
2023-05-20T06:39:31.353Z,9.65
2023-05-20T06:41:59.245Z,5.63
2023-05-20T06:44:27.409Z,6.07
2023-05-20T06:46:57.705Z,4.00
2023-05-20T06:49:31.096Z,6.78
2023-05-20T06:51:59.294Z,5.63
2023-05-20T06:54:27.267Z,6.18
2023-05-20T06:56:55.500Z,5.10
2023-05-20T06:59:23.534Z,5.28
2023-05-20T07:01:51.887Z,3.95
2023-05-20T07:04:19.908Z,5.45
2023-05-20T07:06:49.558Z,5.30
2023-05-20T07:09:17.743Z,5.93
2023-05-20T07:11:46.071Z,4.78
2023-05-20T07:14:14.034Z,4.65
2023-05-20T07:16:42.073Z,5.97
2023-05-20T07:19:12.592Z,4.00
2023-05-20T07:21:42.581Z,3.75
2023-05-20T07:24:12.102Z,3.50
2023-05-20T07:26:40.140Z,4.10
2023-05-20T07:29:10.395Z,4.82
2023-05-20T07:31:41.157Z,5.45
2023-05-20T07:34:09.152Z,4.45
2023-05-20T07:36:37.919Z,6.03
2023-05-20T07:39:09.061Z,4.18
2023-05-20T07:41:40.701Z,4.65
2023-05-20T07:44:11.379Z,6.28
2023-05-20T07:46:39.808Z,4.18
2023-05-20T07:49:07.737Z,4.60
2023-05-20T07:51:35.903Z,6.63
2023-05-20T07:54:04.168Z,5.15
2023-05-20T07:56:32.212Z,5.00
2023-05-20T07:59:03.367Z,5.97
2023-05-20T08:01:31.902Z,4.97
2023-05-20T08:03:59.904Z,5.75
2023-05-20T08:06:29.829Z,6.63
2023-05-20T08:09:01.433Z,6.95
2023-05-20T08:11:29.301Z,5.32
2023-05-20T08:13:57.081Z,11.00
2023-05-20T08:16:26.350Z,6.30
2023-05-20T08:18:54.180Z,6.55
2023-05-20T08:21:22.105Z,7.25
2023-05-20T08:23:50.234Z,8.13
2023-05-20T08:26:18.300Z,7.57
2023-05-20T08:28:46.814Z,6.78
2023-05-20T08:31:14.810Z,6.50
2023-05-20T08:33:44.212Z,8.02
2023-05-20T08:36:12.113Z,10.90
2023-05-20T08:38:39.854Z,6.85
2023-05-20T08:41:07.737Z,6.40
2023-05-20T08:43:36.837Z,6.55
2023-05-20T08:46:06.653Z,7.82
2023-05-20T08:48:35.206Z,6.57
2023-05-20T08:51:05.661Z,8.63
2023-05-20T08:53:33.530Z,6.75
2023-05-20T08:56:03.318Z,6.30
2023-05-20T08:58:32.655Z,7.10
2023-05-20T09:01:01.060Z,5.78
2023-05-20T09:03:29.138Z,5.85
2023-05-20T09:06:06.753Z,7.03
2023-05-20T09:08:35.757Z,7.43
2023-05-20T09:11:04.544Z,5.93
2023-05-20T09:13:34.046Z,6.35
2023-05-20T09:16:02.803Z,10.35
2023-05-20T09:18:31.042Z,9.80
2023-05-20T09:20:58.906Z,21.45
2023-05-20T09:23:30.796Z,10.18
2023-05-20T09:26:01.885Z,7.53
2023-05-20T09:28:29.919Z,8.93
2023-05-20T09:31:01.593Z,8.43
2023-05-20T09:33:32.137Z,8.73
2023-05-20T09:36:08.634Z,7.78
2023-05-20T09:38:40.239Z,6.75
2023-05-20T09:41:09.533Z,6.83
2023-05-20T09:43:38.465Z,6.55
2023-05-20T09:46:07.408Z,7.15
2023-05-20T09:48:37.514Z,6.93
2023-05-20T09:51:07.135Z,6.68
2023-05-20T09:53:37.920Z,6.47
2023-05-20T09:56:10.390Z,6.03
2023-05-20T09:58:42.392Z,7.30
2023-05-20T10:01:10.308Z,6.15
2023-05-20T10:03:39.296Z,6.65
2023-05-20T10:06:28.037Z,6.43
2023-05-20T10:09:12.488Z,7.53
2023-05-20T10:11:55.005Z,6.70
2023-05-20T10:14:42.312Z,8.50
2023-05-20T10:17:18.394Z,7.07
2023-05-20T10:19:46.534Z,6.70
2023-05-20T10:22:14.732Z,7.78
2023-05-20T10:24:44.357Z,10.93
2023-05-20T10:27:15.490Z,7.85
2023-05-20T10:29:45.084Z,7.90
2023-05-20T10:32:13.060Z,7.93
2023-05-20T10:34:49.169Z,8.15
2023-05-20T10:37:26.652Z,8.20
2023-05-20T10:40:03.966Z,7.47
2023-05-20T10:42:33.337Z,6.47
2023-05-20T10:45:01.439Z,6.60
2023-05-20T10:47:29.341Z,7.13
2023-05-20T10:49:58.195Z,6.10
2023-05-20T10:52:26.448Z,6.03
2023-05-20T10:54:57.663Z,5.95
2023-05-20T10:57:27.314Z,6.40
2023-05-20T10:59:57.284Z,6.05
2023-05-20T11:02:27.178Z,5.32
2023-05-20T11:04:58.215Z,5.60
2023-05-20T11:07:27.813Z,4.95
2023-05-20T11:09:56.046Z,5.75
2023-05-20T11:12:25.241Z,5.97
2023-05-20T11:14:53.434Z,6.03
2023-05-20T11:17:22.920Z,11.70
2023-05-20T11:19:53.812Z,5.88
2023-05-20T11:22:21.995Z,6.38
2023-05-20T11:24:50.150Z,6.28
2023-05-20T11:27:18.081Z,5.32
2023-05-20T11:29:46.064Z,5.15
2023-05-20T11:32:14.125Z,5.70
2023-05-20T11:34:43.731Z,5.63
2023-05-20T11:37:12.391Z,6.35
2023-05-20T11:39:40.435Z,6.45
2023-05-20T11:42:08.454Z,6.25
2023-05-20T11:44:38.339Z,6.00
2023-05-20T11:47:06.774Z,5.00
2023-05-20T11:49:41.136Z,5.57
2023-05-20T11:52:12.134Z,5.10
2023-05-20T11:54:40.110Z,5.97
2023-05-20T11:57:08.253Z,8.13
2023-05-20T11:59:38.014Z,5.70
2023-05-20T12:02:06.142Z,5.60
2023-05-20T12:07:56.066Z,7.32
2023-05-20T12:10:24.674Z,7.27
2023-05-20T12:12:52.720Z,5.68
2023-05-20T12:15:27.355Z,6.28
2023-05-20T12:17:56.085Z,5.68
2023-05-20T12:20:39.041Z,4.97
2023-05-20T12:23:33.046Z,5.40
2023-05-20T12:26:01.628Z,4.55
2023-05-20T12:28:37.587Z,5.00
2023-05-20T12:31:06.386Z,8.50
2023-05-20T12:33:34.654Z,4.72
2023-05-20T12:36:03.409Z,6.57
2023-05-20T12:38:33.630Z,4.43
2023-05-20T12:41:02.247Z,6.25
2023-05-20T12:43:30.260Z,5.28
2023-05-20T12:45:58.257Z,4.65
2023-05-20T12:48:26.493Z,5.50
2023-05-20T12:50:54.424Z,5.35
2023-05-20T12:53:22.404Z,4.25
2023-05-20T12:55:51.921Z,4.32
2023-05-20T12:58:21.217Z,3.55
2023-05-20T13:00:51.221Z,5.03
2023-05-20T13:03:25.632Z,5.88
2023-05-20T13:05:53.656Z,3.95
2023-05-20T13:08:24.075Z,4.38
2023-05-20T13:10:53.989Z,4.18
2023-05-20T13:13:23.914Z,4.00
2023-05-20T13:19:01.273Z,4.32
2023-05-20T13:21:29.513Z,3.58
2023-05-20T13:23:57.502Z,4.05
2023-05-20T13:26:26.948Z,4.13
2023-05-20T13:28:57.617Z,3.78
2023-05-20T13:31:25.849Z,3.60
2023-05-20T13:33:55.367Z,3.20
2023-05-20T13:36:25.108Z,3.30
2023-05-20T13:38:53.109Z,3.40
2023-05-20T13:41:21.330Z,4.85
2023-05-20T13:43:50.708Z,3.65
2023-05-20T13:46:18.744Z,3.63
2023-05-20T13:48:46.927Z,3.60
2023-05-20T13:51:15.015Z,3.95
2023-05-20T13:53:42.960Z,5.05
2023-05-20T13:56:11.277Z,3.08
2023-05-20T13:58:41.995Z,3.65
2023-05-20T14:01:12.643Z,3.70
2023-05-20T14:03:41.148Z,3.22
2023-05-20T14:06:09.366Z,3.22
2023-05-20T14:08:37.249Z,3.35
2023-05-20T14:11:05.388Z,2.83
2023-05-20T14:13:33.325Z,4.45
2023-05-20T14:16:01.322Z,3.00
2023-05-20T14:18:30.665Z,3.45
2023-05-20T14:20:58.547Z,3.70
2023-05-20T14:23:26.372Z,5.45
2023-05-20T14:25:54.282Z,3.58
2023-05-20T14:28:22.117Z,4.18
2023-05-20T14:30:49.911Z,3.20
2023-05-20T14:33:17.944Z,4.07
2023-05-20T14:35:47.227Z,3.47
2023-05-20T14:38:15.042Z,4.32
2023-05-20T14:40:42.891Z,2.75
2023-05-20T14:43:10.788Z,3.25
2023-05-20T14:45:38.775Z,2.90
2023-05-20T14:48:07.211Z,3.17
2023-05-20T14:50:37.992Z,3.10
2023-05-20T14:53:07.365Z,3.20
2023-05-20T14:55:35.544Z,3.33
2023-05-20T14:58:04.024Z,4.00
2023-05-20T15:00:32.802Z,3.85
2023-05-20T15:03:01.130Z,3.58
2023-05-20T15:05:29.077Z,5.93
2023-05-20T15:07:57.464Z,5.47
2023-05-20T15:10:27.065Z,3.95
2023-05-20T15:12:56.620Z,4.72
2023-05-20T15:15:24.621Z,4.85
2023-05-20T15:17:52.537Z,3.78
2023-05-20T15:20:20.442Z,4.05
2023-05-20T15:22:48.823Z,5.05
2023-05-20T15:25:16.890Z,3.00
2023-05-20T15:27:46.227Z,3.83
2023-05-20T15:30:15.588Z,4.10
2023-05-20T15:32:43.761Z,3.30
2023-05-20T15:35:11.661Z,3.63
2023-05-20T15:37:39.517Z,4.38
2023-05-20T15:40:08.975Z,3.38
2023-05-20T15:42:37.161Z,4.50
2023-05-20T15:45:07.359Z,4.68
2023-05-20T15:47:40.592Z,4.43
2023-05-20T15:50:11.228Z,3.63
2023-05-20T15:52:39.606Z,3.55
2023-05-20T15:55:09.855Z,3.63
2023-05-20T15:57:40.921Z,3.65
2023-05-20T16:00:13.652Z,3.33
2023-05-20T16:02:43.077Z,4.60
2023-05-20T16:05:11.722Z,4.07
2023-05-20T16:07:39.928Z,4.80
2023-05-20T16:10:23.975Z,4.80
2023-05-20T16:12:53.513Z,3.55
2023-05-20T16:15:25.551Z,6.00
2023-05-20T16:17:57.417Z,4.13
2023-05-20T16:20:25.717Z,4.28
2023-05-20T16:22:53.666Z,3.75
2023-05-20T16:25:23.766Z,3.75
2023-05-20T16:27:58.364Z,5.75
2023-05-20T16:30:27.820Z,4.10
2023-05-20T16:32:55.915Z,3.60
2023-05-20T16:35:24.266Z,4.45
2023-05-20T16:37:57.047Z,4.35
2023-05-20T16:40:41.599Z,3.65
2023-05-20T16:43:09.765Z,4.60
2023-05-20T16:45:39.390Z,4.85
2023-05-20T16:48:14.209Z,4.05
2023-05-20T16:50:45.250Z,3.55
2023-05-20T16:53:16.684Z,3.80
2023-05-20T16:55:48.956Z,4.47
2023-05-20T16:58:17.116Z,3.60
2023-05-20T17:00:46.479Z,4.38
2023-05-20T17:03:14.412Z,3.90
2023-05-20T17:05:43.547Z,5.28
2023-05-20T17:08:11.478Z,4.50
2023-05-20T17:10:39.459Z,5.38
2023-05-20T17:13:07.404Z,7.10
2023-05-20T17:15:37.163Z,3.75
2023-05-20T17:18:09.067Z,6.65
2023-05-20T17:20:37.266Z,3.40
2023-05-20T17:23:05.513Z,4.13
2023-05-20T17:25:36.305Z,4.30
2023-05-20T17:28:04.680Z,4.22
2023-05-20T17:30:32.810Z,5.50
2023-05-20T17:33:01.199Z,3.97
2023-05-20T17:35:31.823Z,5.70
2023-05-20T17:38:00.036Z,7.40
2023-05-20T17:40:28.202Z,3.63
2023-05-20T17:42:56.340Z,6.35
2023-05-20T17:45:26.389Z,4.47
2023-05-20T17:47:54.695Z,4.35
2023-05-20T17:50:23.047Z,3.95
2023-05-20T17:52:52.346Z,4.95
2023-05-20T17:55:22.107Z,4.70
2023-05-20T17:57:50.252Z,3.67
2023-05-20T18:00:21.786Z,3.80
2023-05-20T18:02:49.994Z,3.57
2023-05-20T18:05:18.387Z,3.55
2023-05-20T18:07:46.324Z,3.58
2023-05-20T18:10:16.013Z,7.75
2023-05-20T18:12:45.638Z,4.22
2023-05-20T18:15:14.319Z,5.45
2023-05-20T18:17:42.286Z,4.18
2023-05-20T18:20:10.997Z,3.90
2023-05-20T18:22:40.295Z,4.47
2023-05-20T18:25:09.345Z,4.65
2023-05-20T18:27:42.376Z,3.97
2023-05-20T18:30:11.538Z,5.18
2023-05-20T18:35:44.860Z,5.18
2023-05-20T18:38:21.820Z,4.43
2023-05-20T18:40:57.213Z,5.85
2023-05-20T18:43:26.814Z,4.53
2023-05-20T18:45:56.339Z,4.53
2023-05-20T18:48:27.082Z,4.53
2023-05-20T18:50:55.251Z,4.13
2023-05-20T18:53:23.886Z,5.53
2023-05-20T18:56:11.014Z,4.43
2023-05-20T18:58:53.885Z,4.53
2023-05-20T19:01:22.081Z,4.13
2023-05-20T19:03:52.772Z,4.93
2023-05-20T19:06:22.116Z,6.97
2023-05-20T19:09:10.299Z,5.32
2023-05-20T19:11:51.724Z,4.88
2023-05-20T19:14:21.355Z,5.45
2023-05-20T19:16:49.376Z,5.57
2023-05-20T19:19:17.549Z,5.25
2023-05-20T19:21:46.200Z,5.93
2023-05-20T19:24:14.137Z,5.72
2023-05-20T19:26:42.026Z,6.03
2023-05-20T19:29:09.893Z,5.80
2023-05-20T19:31:43.035Z,6.50
2023-05-20T19:34:11.222Z,5.20
2023-05-20T19:36:42.413Z,5.55
2023-05-20T19:39:10.722Z,6.57
2023-05-20T19:41:39.229Z,5.22
2023-05-20T19:44:09.204Z,6.32
2023-05-20T19:46:37.813Z,5.15
2023-05-20T19:49:07.384Z,5.13
2023-05-20T19:51:36.492Z,5.25
2023-05-20T19:54:04.677Z,6.07
2023-05-20T19:56:32.575Z,6.00
2023-05-20T19:59:01.789Z,5.85
2023-05-20T20:01:30.029Z,8.82
2023-05-20T20:03:57.918Z,6.45
2023-05-20T20:06:27.428Z,6.38
2023-05-20T20:08:58.707Z,6.05
2023-05-20T20:11:26.895Z,7.32
2023-05-20T20:13:54.837Z,6.95
2023-05-20T20:16:23.005Z,9.85
2023-05-20T20:18:51.119Z,7.72
2023-05-20T20:21:21.652Z,7.65
2023-05-20T20:23:53.493Z,7.22
2023-05-20T20:26:23.634Z,8.80
2023-05-20T20:28:55.078Z,8.45
2023-05-20T20:31:25.319Z,7.50
2023-05-20T20:33:57.027Z,6.82
2023-05-20T20:36:25.081Z,9.05
2023-05-20T20:38:54.639Z,8.95
2023-05-20T20:41:22.728Z,7.78
2023-05-20T20:43:50.835Z,8.10
2023-05-20T20:46:19.010Z,7.80
2023-05-20T20:48:47.102Z,9.02
2023-05-20T20:51:15.193Z,8.18
2023-05-20T20:53:43.655Z,9.20
2023-05-20T20:56:12.975Z,8.60
2023-05-20T21:02:02.680Z,9.02
2023-05-20T21:04:49.362Z,8.75
2023-05-20T21:07:26.059Z,8.95
2023-05-20T21:10:22.421Z,9.18
2023-05-20T21:13:12.940Z,8.70
2023-05-20T21:15:54.674Z,8.13
2023-05-20T21:18:32.068Z,8.47
2023-05-20T21:21:12.658Z,9.35
2023-05-20T21:24:06.015Z,9.27
2023-05-20T21:26:33.874Z,9.00
2023-05-20T21:29:03.160Z,8.82
2023-05-20T21:31:31.356Z,9.63
2023-05-20T21:33:59.271Z,9.40
2023-05-20T21:36:27.148Z,9.80
2023-05-20T21:38:55.100Z,9.40
2023-05-20T21:44:33.769Z,9.82
2023-05-20T21:47:11.484Z,7.82
2023-05-20T21:49:42.440Z,11.48
2023-05-20T21:52:10.293Z,9.32
2023-05-20T21:54:41.512Z,10.82
2023-05-20T21:57:15.581Z,9.63
2023-05-20T21:59:44.906Z,10.02
2023-05-20T22:02:12.784Z,9.98
2023-05-20T22:04:40.651Z,11.15
2023-05-20T22:07:08.547Z,10.55
2023-05-20T22:09:36.835Z,10.35
2023-05-20T22:12:05.100Z,10.65
2023-05-20T22:14:32.963Z,10.98
2023-05-20T22:17:03.240Z,10.00
2023-05-20T22:19:31.304Z,10.80
2023-05-20T22:22:01.012Z,11.70
2023-05-20T22:24:32.092Z,10.20
2023-05-20T22:27:17.926Z,11.23
2023-05-20T22:29:50.998Z,10.88
2023-05-20T22:32:25.736Z,10.52
2023-05-20T22:34:58.418Z,10.57
2023-05-20T22:37:29.040Z,10.63
2023-05-20T22:39:57.259Z,13.35
2023-05-20T22:42:25.217Z,11.57
2023-05-20T22:44:55.863Z,11.13
2023-05-20T22:47:25.239Z,10.73
2023-05-20T22:49:53.093Z,10.60
2023-05-20T22:52:21.246Z,10.52
2023-05-20T22:54:51.668Z,12.13
2023-05-20T22:57:19.551Z,12.43
2023-05-20T22:59:47.718Z,11.23
2023-05-20T23:02:16.012Z,10.30
2023-05-20T23:04:45.740Z,11.38
2023-05-20T23:07:15.029Z,12.02
2023-05-20T23:09:43.030Z,10.45
2023-05-20T23:12:10.973Z,10.65
2023-05-20T23:14:38.945Z,11.88
2023-05-20T23:17:07.014Z,11.98
2023-05-20T23:19:35.190Z,12.07
2023-05-20T23:22:05.001Z,11.88
2023-05-20T23:24:32.918Z,11.23
2023-05-20T23:27:00.834Z,11.65
2023-05-20T23:29:28.675Z,11.30
2023-05-20T23:31:56.606Z,13.57
2023-05-20T23:34:24.420Z,13.15
2023-05-20T23:36:52.946Z,11.73
2023-05-20T23:39:22.205Z,11.43
2023-05-20T23:41:50.419Z,12.30
2023-05-20T23:44:18.303Z,14.13
2023-05-20T23:46:46.319Z,16.02
2023-05-20T23:49:14.108Z,14.18
2023-05-20T23:51:42.071Z,12.90
2023-05-20T23:54:09.936Z,13.07
2023-05-20T23:56:41.892Z,12.55
2023-05-20T23:59:09.698Z,14.10
